sensor_id;sensor_type;location;lat;lon;timestamp;temperature;humidity
67942;SHT31;54731;42.600;23.476;2023-01-29T00:02:19;-1.20;85.23
67942;SHT31;54731;42.600;23.476;2023-01-29T00:04:45;-1.17;84.85
67942;SHT31;54731;42.600;23.476;2023-01-29T00:07:10;-1.13;84.92
67942;SHT31;54731;42.600;23.476;2023-01-29T00:09:35;-1.20;84.94
67942;SHT31;54731;42.600;23.476;2023-01-29T00:12:01;-1.17;84.99
67942;SHT31;54731;42.600;23.476;2023-01-29T00:14:26;-1.15;85.12
67942;SHT31;54731;42.600;23.476;2023-01-29T00:16:52;-1.13;85.07
67942;SHT31;54731;42.600;23.476;2023-01-29T00:19:17;-1.12;85.03
67942;SHT31;54731;42.600;23.476;2023-01-29T00:21:42;-1.08;84.77
67942;SHT31;54731;42.600;23.476;2023-01-29T00:24:07;-1.19;85.31
67942;SHT31;54731;42.600;23.476;2023-01-29T00:26:33;-1.19;85.38
67942;SHT31;54731;42.600;23.476;2023-01-29T00:28:58;-1.11;85.13
67942;SHT31;54731;42.600;23.476;2023-01-29T00:31:24;-1.17;85.18
67942;SHT31;54731;42.600;23.476;2023-01-29T00:33:49;-1.11;85.11
67942;SHT31;54731;42.600;23.476;2023-01-29T00:36:17;-1.15;85.19
67942;SHT31;54731;42.600;23.476;2023-01-29T00:38:42;-1.19;85.39
67942;SHT31;54731;42.600;23.476;2023-01-29T00:41:13;-1.20;85.44
67942;SHT31;54731;42.600;23.476;2023-01-29T00:43:38;-1.17;85.30
67942;SHT31;54731;42.600;23.476;2023-01-29T00:46:03;-1.17;85.40
67942;SHT31;54731;42.600;23.476;2023-01-29T00:48:29;-1.09;85.27
67942;SHT31;54731;42.600;23.476;2023-01-29T00:50:54;-1.06;85.18
67942;SHT31;54731;42.600;23.476;2023-01-29T00:53:19;-1.11;84.82
67942;SHT31;54731;42.600;23.476;2023-01-29T00:55:45;-1.08;84.78
67942;SHT31;54731;42.600;23.476;2023-01-29T00:58:10;-1.05;84.69
67942;SHT31;54731;42.600;23.476;2023-01-29T01:00:35;-1.02;84.70
67942;SHT31;54731;42.600;23.476;2023-01-29T01:03:00;-1.09;84.33
67942;SHT31;54731;42.600;23.476;2023-01-29T01:05:26;-1.09;84.49
67942;SHT31;54731;42.600;23.476;2023-01-29T01:07:54;-1.13;84.89
67942;SHT31;54731;42.600;23.476;2023-01-29T01:10:24;-1.23;85.40
67942;SHT31;54731;42.600;23.476;2023-01-29T01:15:29;-1.25;85.72
67942;SHT31;54731;42.600;23.476;2023-01-29T01:17:57;-1.20;85.74
67942;SHT31;54731;42.600;23.476;2023-01-29T01:20:24;-1.15;85.46
67942;SHT31;54731;42.600;23.476;2023-01-29T01:22:51;-1.12;85.34
67942;SHT31;54731;42.600;23.476;2023-01-29T01:25:17;-1.15;85.28
67942;SHT31;54731;42.600;23.476;2023-01-29T01:27:42;-1.16;85.54
67942;SHT31;54731;42.600;23.476;2023-01-29T01:30:10;-1.23;85.88
67942;SHT31;54731;42.600;23.476;2023-01-29T01:32:36;-1.23;86.10
67942;SHT31;54731;42.600;23.476;2023-01-29T01:35:02;-1.16;86.00
67942;SHT31;54731;42.600;23.476;2023-01-29T01:37:27;-1.17;85.90
67942;SHT31;54731;42.600;23.476;2023-01-29T01:39:52;-1.20;85.93
67942;SHT31;54731;42.600;23.476;2023-01-29T01:42:18;-1.19;86.00
67942;SHT31;54731;42.600;23.476;2023-01-29T01:45:04;-1.23;86.19
67942;SHT31;54731;42.600;23.476;2023-01-29T01:47:32;-1.20;86.23
67942;SHT31;54731;42.600;23.476;2023-01-29T01:50:04;-1.28;86.29
67942;SHT31;54731;42.600;23.476;2023-01-29T01:52:30;-1.29;86.61
67942;SHT31;54731;42.600;23.476;2023-01-29T01:54:57;-1.32;86.72
67942;SHT31;54731;42.600;23.476;2023-01-29T01:57:24;-1.29;86.96
67942;SHT31;54731;42.600;23.476;2023-01-29T02:00:03;-1.28;86.85
67942;SHT31;54731;42.600;23.476;2023-01-29T02:02:28;-1.39;86.94
67942;SHT31;54731;42.600;23.476;2023-01-29T02:04:54;-1.33;87.09
67942;SHT31;54731;42.600;23.476;2023-01-29T02:07:19;-1.35;86.97
67942;SHT31;54731;42.600;23.476;2023-01-29T02:09:51;-1.39;87.24
67942;SHT31;54731;42.600;23.476;2023-01-29T02:12:18;-1.38;87.30
67942;SHT31;54731;42.600;23.476;2023-01-29T02:14:44;-1.39;87.39
67942;SHT31;54731;42.600;23.476;2023-01-29T02:17:12;-1.33;87.28
67942;SHT31;54731;42.600;23.476;2023-01-29T02:26:16;-1.25;86.99
67942;SHT31;54731;42.600;23.476;2023-01-29T02:31:13;-1.39;87.18
67942;SHT31;54731;42.600;23.476;2023-01-29T02:34:02;-1.39;87.31
67942;SHT31;54731;42.600;23.476;2023-01-29T02:36:37;-1.39;87.32
67942;SHT31;54731;42.600;23.476;2023-01-29T02:44:37;-1.36;87.09
67942;SHT31;54731;42.600;23.476;2023-01-29T02:47:21;-1.42;87.14
67942;SHT31;54731;42.600;23.476;2023-01-29T02:49:56;-1.39;87.23
67942;SHT31;54731;42.600;23.476;2023-01-29T02:52:30;-1.39;87.17
67942;SHT31;54731;42.600;23.476;2023-01-29T02:55:23;-1.42;87.21
67942;SHT31;54731;42.600;23.476;2023-01-29T02:57:53;-1.39;87.11
67942;SHT31;54731;42.600;23.476;2023-01-29T03:00:21;-1.46;87.10
67942;SHT31;54731;42.600;23.476;2023-01-29T03:05:56;-1.42;87.09
67942;SHT31;54731;42.600;23.476;2023-01-29T03:08:30;-1.38;86.94
67942;SHT31;54731;42.600;23.476;2023-01-29T03:11:01;-1.40;86.94
67942;SHT31;54731;42.600;23.476;2023-01-29T03:13:35;-1.38;86.97
67942;SHT31;54731;42.600;23.476;2023-01-29T03:18:52;-1.49;87.25
67942;SHT31;54731;42.600;23.476;2023-01-29T03:21:23;-1.47;87.04
67942;SHT31;54731;42.600;23.476;2023-01-29T03:23:50;-1.40;86.89
67942;SHT31;54731;42.600;23.476;2023-01-29T03:26:19;-1.40;86.84
67942;SHT31;54731;42.600;23.476;2023-01-29T03:28:46;-1.38;86.73
67942;SHT31;54731;42.600;23.476;2023-01-29T03:31:13;-1.35;86.01
67942;SHT31;54731;42.600;23.476;2023-01-29T03:33:51;-1.39;85.85
67942;SHT31;54731;42.600;23.476;2023-01-29T03:36:45;-1.40;86.04
67942;SHT31;54731;42.600;23.476;2023-01-29T03:39:14;-1.38;85.83
67942;SHT31;54731;42.600;23.476;2023-01-29T03:47:27;-1.36;85.33
67942;SHT31;54731;42.600;23.476;2023-01-29T03:50:15;-1.33;85.46
67942;SHT31;54731;42.600;23.476;2023-01-29T03:52:50;-1.32;85.31
67942;SHT31;54731;42.600;23.476;2023-01-29T03:55:32;-1.35;85.17
67942;SHT31;54731;42.600;23.476;2023-01-29T04:00:58;-1.32;85.26
67942;SHT31;54731;42.600;23.476;2023-01-29T04:03:33;-1.36;85.21
67942;SHT31;54731;42.600;23.476;2023-01-29T04:06:07;-1.31;85.37
67942;SHT31;54731;42.600;23.476;2023-01-29T04:08:37;-1.33;85.18
67942;SHT31;54731;42.600;23.476;2023-01-29T04:11:09;-1.31;85.39
67942;SHT31;54731;42.600;23.476;2023-01-29T04:13:37;-1.31;85.32
67942;SHT31;54731;42.600;23.476;2023-01-29T04:16:05;-1.33;85.30
67942;SHT31;54731;42.600;23.476;2023-01-29T04:18:31;-1.28;85.37
67942;SHT31;54731;42.600;23.476;2023-01-29T04:20:56;-1.35;85.16
67942;SHT31;54731;42.600;23.476;2023-01-29T04:23:24;-1.36;85.39
67942;SHT31;54731;42.600;23.476;2023-01-29T04:31:42;-1.32;85.44
67942;SHT31;54731;42.600;23.476;2023-01-29T04:34:24;-1.39;85.54
67942;SHT31;54731;42.600;23.476;2023-01-29T04:39:42;-1.33;85.31
67942;SHT31;54731;42.600;23.476;2023-01-29T04:45:53;-1.35;85.15
67942;SHT31;54731;42.600;23.476;2023-01-29T04:53:53;-1.39;84.97
67942;SHT31;54731;42.600;23.476;2023-01-29T04:56:28;-1.36;84.81
67942;SHT31;54731;42.600;23.476;2023-01-29T04:59:20;-1.35;84.84
67942;SHT31;54731;42.600;23.476;2023-01-29T05:01:48;-1.49;84.85
67942;SHT31;54731;42.600;23.476;2023-01-29T05:04:16;-1.44;85.20
67942;SHT31;54731;42.600;23.476;2023-01-29T05:06:44;-1.49;85.27
67942;SHT31;54731;42.600;23.476;2023-01-29T05:09:12;-1.42;85.17
67942;SHT31;54731;42.600;23.476;2023-01-29T05:11:38;-1.46;84.92
67942;SHT31;54731;42.600;23.476;2023-01-29T05:14:07;-1.49;85.26
67942;SHT31;54731;42.600;23.476;2023-01-29T05:16:37;-1.47;85.33
67942;SHT31;54731;42.600;23.476;2023-01-29T05:19:04;-1.43;85.23
67942;SHT31;54731;42.600;23.476;2023-01-29T05:21:29;-1.46;85.31
67942;SHT31;54731;42.600;23.476;2023-01-29T05:24:16;-1.46;85.23
67942;SHT31;54731;42.600;23.476;2023-01-29T05:26:43;-1.47;85.44
67942;SHT31;54731;42.600;23.476;2023-01-29T05:29:10;-1.39;85.22
67942;SHT31;54731;42.600;23.476;2023-01-29T05:31:35;-1.38;84.99
67942;SHT31;54731;42.600;23.476;2023-01-29T05:34:01;-1.44;85.18
67942;SHT31;54731;42.600;23.476;2023-01-29T05:36:26;-1.44;85.45
67942;SHT31;54731;42.600;23.476;2023-01-29T05:38:51;-1.43;85.19
67942;SHT31;54731;42.600;23.476;2023-01-29T05:41:17;-1.50;85.36
67942;SHT31;54731;42.600;23.476;2023-01-29T05:43:42;-1.44;85.43
67942;SHT31;54731;42.600;23.476;2023-01-29T05:46:07;-1.43;85.48
67942;SHT31;54731;42.600;23.476;2023-01-29T05:48:32;-1.46;85.72
67942;SHT31;54731;42.600;23.476;2023-01-29T05:51:04;-1.42;85.63
67942;SHT31;54731;42.600;23.476;2023-01-29T05:53:30;-1.42;85.62
67942;SHT31;54731;42.600;23.476;2023-01-29T05:56:00;-1.39;85.65
67942;SHT31;54731;42.600;23.476;2023-01-29T05:58:25;-1.33;85.50
67942;SHT31;54731;42.600;23.476;2023-01-29T06:00:50;-1.32;85.31
67942;SHT31;54731;42.600;23.476;2023-01-29T06:03:16;-1.32;84.95
67942;SHT31;54731;42.600;23.476;2023-01-29T06:05:41;-1.35;85.27
67942;SHT31;54731;42.600;23.476;2023-01-29T06:08:07;-1.39;85.57
67942;SHT31;54731;42.600;23.476;2023-01-29T06:10:32;-1.38;85.55
67942;SHT31;54731;42.600;23.476;2023-01-29T06:12:58;-1.40;85.51
67942;SHT31;54731;42.600;23.476;2023-01-29T06:15:23;-1.39;85.81
67942;SHT31;54731;42.600;23.476;2023-01-29T06:17:48;-1.38;85.64
67942;SHT31;54731;42.600;23.476;2023-01-29T06:20:14;-1.39;85.75
67942;SHT31;54731;42.600;23.476;2023-01-29T06:22:39;-1.43;85.78
67942;SHT31;54731;42.600;23.476;2023-01-29T06:25:05;-1.43;85.85
67942;SHT31;54731;42.600;23.476;2023-01-29T06:27:30;-1.39;85.94
67942;SHT31;54731;42.600;23.476;2023-01-29T06:29:55;-1.40;86.00
67942;SHT31;54731;42.600;23.476;2023-01-29T06:32:21;-1.33;85.97
67942;SHT31;54731;42.600;23.476;2023-01-29T06:34:46;-1.23;85.56
67942;SHT31;54731;42.600;23.476;2023-01-29T06:37:11;-1.29;85.29
67942;SHT31;54731;42.600;23.476;2023-01-29T06:39:37;-1.26;85.41
67942;SHT31;54731;42.600;23.476;2023-01-29T06:42:02;-1.23;85.47
67942;SHT31;54731;42.600;23.476;2023-01-29T06:44:27;-1.29;85.35
67942;SHT31;54731;42.600;23.476;2023-01-29T06:46:53;-1.26;85.47
67942;SHT31;54731;42.600;23.476;2023-01-29T06:49:19;-1.20;85.46
67942;SHT31;54731;42.600;23.476;2023-01-29T06:51:44;-1.17;85.21
67942;SHT31;54731;42.600;23.476;2023-01-29T06:54:09;-1.22;85.06
67942;SHT31;54731;42.600;23.476;2023-01-29T06:56:35;-1.19;85.17
67942;SHT31;54731;42.600;23.476;2023-01-29T06:59:00;-1.11;84.63
67942;SHT31;54731;42.600;23.476;2023-01-29T07:01:25;-1.16;84.94
67942;SHT31;54731;42.600;23.476;2023-01-29T07:03:51;-1.11;84.97
67942;SHT31;54731;42.600;23.476;2023-01-29T07:06:17;-1.06;84.98
67942;SHT31;54731;42.600;23.476;2023-01-29T07:08:43;-0.99;84.83
67942;SHT31;54731;42.600;23.476;2023-01-29T07:11:09;-0.98;84.70
67942;SHT31;54731;42.600;23.476;2023-01-29T07:13:34;-0.98;84.68
67942;SHT31;54731;42.600;23.476;2023-01-29T07:16:00;-1.03;84.67
67942;SHT31;54731;42.600;23.476;2023-01-29T07:18:27;-1.01;84.67
67942;SHT31;54731;42.600;23.476;2023-01-29T07:20:52;-1.03;84.80
67942;SHT31;54731;42.600;23.476;2023-01-29T07:23:17;-0.99;84.94
67942;SHT31;54731;42.600;23.476;2023-01-29T07:25:43;-1.02;84.83
67942;SHT31;54731;42.600;23.476;2023-01-29T07:28:08;-0.96;84.76
67942;SHT31;54731;42.600;23.476;2023-01-29T07:30:34;-0.92;84.55
67942;SHT31;54731;42.600;23.476;2023-01-29T07:33:04;-1.01;84.94
67942;SHT31;54731;42.600;23.476;2023-01-29T07:35:30;-1.08;85.43
67942;SHT31;54731;42.600;23.476;2023-01-29T07:37:56;-0.98;85.41
67942;SHT31;54731;42.600;23.476;2023-01-29T07:40:21;-0.89;85.11
67942;SHT31;54731;42.600;23.476;2023-01-29T07:42:46;-0.93;85.24
67942;SHT31;54731;42.600;23.476;2023-01-29T07:45:12;-0.88;85.10
67942;SHT31;54731;42.600;23.476;2023-01-29T07:47:37;-0.91;85.01
67942;SHT31;54731;42.600;23.476;2023-01-29T07:50:04;-0.95;85.21
67942;SHT31;54731;42.600;23.476;2023-01-29T07:52:31;-0.91;85.35
67942;SHT31;54731;42.600;23.476;2023-01-29T07:54:56;-0.91;85.26
67942;SHT31;54731;42.600;23.476;2023-01-29T07:57:22;-0.80;85.20
67942;SHT31;54731;42.600;23.476;2023-01-29T07:59:47;-0.78;84.75
67942;SHT31;54731;42.600;23.476;2023-01-29T08:02:13;-0.70;84.74
67942;SHT31;54731;42.600;23.476;2023-01-29T08:04:38;-0.71;84.72
67942;SHT31;54731;42.600;23.476;2023-01-29T08:07:03;-0.67;84.73
67942;SHT31;54731;42.600;23.476;2023-01-29T08:09:30;-0.61;84.37
67942;SHT31;54731;42.600;23.476;2023-01-29T08:11:55;-0.65;84.27
67942;SHT31;54731;42.600;23.476;2023-01-29T08:14:22;-0.68;84.08
67942;SHT31;54731;42.600;23.476;2023-01-29T08:16:47;-0.62;84.50
67942;SHT31;54731;42.600;23.476;2023-01-29T08:19:13;-0.61;84.13
67942;SHT31;54731;42.600;23.476;2023-01-29T08:21:38;-0.53;83.95
67942;SHT31;54731;42.600;23.476;2023-01-29T08:24:04;-0.51;83.76
67942;SHT31;54731;42.600;23.476;2023-01-29T08:26:29;-0.42;83.70
67942;SHT31;54731;42.600;23.476;2023-01-29T08:28:55;-0.51;84.06
67942;SHT31;54731;42.600;23.476;2023-01-29T08:31:20;-0.47;83.57
67942;SHT31;54731;42.600;23.476;2023-01-29T08:33:45;-0.54;83.41
67942;SHT31;54731;42.600;23.476;2023-01-29T08:36:11;-0.62;84.06
67942;SHT31;54731;42.600;23.476;2023-01-29T08:38:36;-0.53;84.11
67942;SHT31;54731;42.600;23.476;2023-01-29T08:41:03;-0.40;83.30
67942;SHT31;54731;42.600;23.476;2023-01-29T08:43:29;-0.47;82.95
67942;SHT31;54731;42.600;23.476;2023-01-29T08:45:54;-0.38;83.17
67942;SHT31;54731;42.600;23.476;2023-01-29T08:48:20;-0.31;82.75
67942;SHT31;54731;42.600;23.476;2023-01-29T08:50:46;-0.47;82.70
67942;SHT31;54731;42.600;23.476;2023-01-29T08:53:11;-0.44;82.84
67942;SHT31;54731;42.600;23.476;2023-01-29T08:55:38;-0.41;82.91
67942;SHT31;54731;42.600;23.476;2023-01-29T08:58:04;-0.51;83.14
67942;SHT31;54731;42.600;23.476;2023-01-29T09:00:31;-0.50;83.28
67942;SHT31;54731;42.600;23.476;2023-01-29T09:02:56;-0.44;83.02
67942;SHT31;54731;42.600;23.476;2023-01-29T09:05:22;-0.44;82.97
67942;SHT31;54731;42.600;23.476;2023-01-29T09:07:47;-0.41;83.05
67942;SHT31;54731;42.600;23.476;2023-01-29T09:10:12;-0.40;82.96
67942;SHT31;54731;42.600;23.476;2023-01-29T09:12:38;-0.38;83.02
67942;SHT31;54731;42.600;23.476;2023-01-29T09:15:03;-0.47;83.29
67942;SHT31;54731;42.600;23.476;2023-01-29T09:17:28;-0.41;83.34
67942;SHT31;54731;42.600;23.476;2023-01-29T09:19:54;-0.42;83.02
67942;SHT31;54731;42.600;23.476;2023-01-29T09:22:19;-0.36;82.94
67942;SHT31;54731;42.600;23.476;2023-01-29T09:24:44;-0.40;83.03
67942;SHT31;54731;42.600;23.476;2023-01-29T09:27:10;-0.41;82.82
67942;SHT31;54731;42.600;23.476;2023-01-29T09:29:35;-0.37;83.13
67942;SHT31;54731;42.600;23.476;2023-01-29T09:32:01;-0.34;82.72
67942;SHT31;54731;42.600;23.476;2023-01-29T09:34:26;-0.34;82.36
67942;SHT31;54731;42.600;23.476;2023-01-29T09:36:51;-0.31;82.45
67942;SHT31;54731;42.600;23.476;2023-01-29T09:39:17;-0.34;82.46
67942;SHT31;54731;42.600;23.476;2023-01-29T09:42:09;-0.27;82.19
67942;SHT31;54731;42.600;23.476;2023-01-29T09:45:02;-0.26;82.20
67942;SHT31;54731;42.600;23.476;2023-01-29T09:47:32;-0.33;82.37
67942;SHT31;54731;42.600;23.476;2023-01-29T09:50:06;-0.26;82.11
67942;SHT31;54731;42.600;23.476;2023-01-29T09:52:35;-0.24;81.99
67942;SHT31;54731;42.600;23.476;2023-01-29T09:55:13;-0.20;81.87
67942;SHT31;54731;42.600;23.476;2023-01-29T09:57:53;-0.27;81.59
67942;SHT31;54731;42.600;23.476;2023-01-29T10:03:20;-0.21;81.87
67942;SHT31;54731;42.600;23.476;2023-01-29T10:08:51;-0.20;81.37
67942;SHT31;54731;42.600;23.476;2023-01-29T10:11:32;-0.17;81.57
67942;SHT31;54731;42.600;23.476;2023-01-29T10:20:12;-0.24;81.11
67942;SHT31;54731;42.600;23.476;2023-01-29T10:23:15;-0.27;81.57
67942;SHT31;54731;42.600;23.476;2023-01-29T10:25:41;-0.26;81.66
67942;SHT31;54731;42.600;23.476;2023-01-29T10:28:44;-0.16;81.70
67942;SHT31;54731;42.600;23.476;2023-01-29T10:31:14;-0.10;80.84
67942;SHT31;54731;42.600;23.476;2023-01-29T10:33:47;-0.11;80.39
67942;SHT31;54731;42.600;23.476;2023-01-29T10:36:19;-0.18;80.75
67942;SHT31;54731;42.600;23.476;2023-01-29T10:38:47;-0.26;81.36
67942;SHT31;54731;42.600;23.476;2023-01-29T10:41:21;-0.26;81.35
67942;SHT31;54731;42.600;23.476;2023-01-29T10:46:58;-0.37;81.39
67942;SHT31;54731;42.600;23.476;2023-01-29T10:52:18;-0.21;81.47
67942;SHT31;54731;42.600;23.476;2023-01-29T11:02:45;-0.23;81.54
67942;SHT31;54731;42.600;23.476;2023-01-29T11:07:45;-0.14;81.51
67942;SHT31;54731;42.600;23.476;2023-01-29T11:10:16;-0.18;81.55
67942;SHT31;54731;42.600;23.476;2023-01-29T11:12:43;-0.24;81.89
67942;SHT31;54731;42.600;23.476;2023-01-29T11:15:17;-0.21;81.42
67942;SHT31;54731;42.600;23.476;2023-01-29T11:18:06;-0.20;81.85
67942;SHT31;54731;42.600;23.476;2023-01-29T11:20:33;-0.21;81.92
67942;SHT31;54731;42.600;23.476;2023-01-29T11:22:58;-0.14;81.45
67942;SHT31;54731;42.600;23.476;2023-01-29T11:25:24;-0.16;81.54
67942;SHT31;54731;42.600;23.476;2023-01-29T11:27:55;-0.11;81.82
67942;SHT31;54731;42.600;23.476;2023-01-29T11:30:30;-0.16;81.74
67942;SHT31;54731;42.600;23.476;2023-01-29T11:35:30;-0.07;81.40
67942;SHT31;54731;42.600;23.476;2023-01-29T11:38:06;0.17;81.22
67942;SHT31;54731;42.600;23.476;2023-01-29T11:40:38;0.21;80.93
67942;SHT31;54731;42.600;23.476;2023-01-29T11:43:31;0.24;80.72
67942;SHT31;54731;42.600;23.476;2023-01-29T11:46:00;0.15;80.47
67942;SHT31;54731;42.600;23.476;2023-01-29T11:48:44;0.22;80.77
67942;SHT31;54731;42.600;23.476;2023-01-29T11:51:22;0.24;80.67
67942;SHT31;54731;42.600;23.476;2023-01-29T11:53:54;0.45;80.36
67942;SHT31;54731;42.600;23.476;2023-01-29T11:56:39;0.45;80.14
67942;SHT31;54731;42.600;23.476;2023-01-29T12:02:22;0.35;80.59
67942;SHT31;54731;42.600;23.476;2023-01-29T12:04:48;0.35;79.91
67942;SHT31;54731;42.600;23.476;2023-01-29T12:07:15;0.45;79.93
67942;SHT31;54731;42.600;23.476;2023-01-29T12:09:48;0.49;79.83
67942;SHT31;54731;42.600;23.476;2023-01-29T12:15:03;0.55;79.71
67942;SHT31;54731;42.600;23.476;2023-01-29T12:17:32;0.51;79.30
67942;SHT31;54731;42.600;23.476;2023-01-29T12:20:05;0.45;79.33
67942;SHT31;54731;42.600;23.476;2023-01-29T12:22:50;0.40;79.61
67942;SHT31;54731;42.600;23.476;2023-01-29T12:27:52;0.47;79.03
67942;SHT31;54731;42.600;23.476;2023-01-29T12:30:26;0.27;79.95
67942;SHT31;54731;42.600;23.476;2023-01-29T12:33:10;0.31;80.23
67942;SHT31;54731;42.600;23.476;2023-01-29T12:35:43;0.21;79.79
67942;SHT31;54731;42.600;23.476;2023-01-29T12:38:21;0.29;81.29
67942;SHT31;54731;42.600;23.476;2023-01-29T12:43:29;0.24;80.26
67942;SHT31;54731;42.600;23.476;2023-01-29T12:45:57;0.19;80.45
67942;SHT31;54731;42.600;23.476;2023-01-29T12:48:27;0.19;80.70
67942;SHT31;54731;42.600;23.476;2023-01-29T12:51:00;0.27;80.50
67942;SHT31;54731;42.600;23.476;2023-01-29T12:53:32;0.21;80.83
67942;SHT31;54731;42.600;23.476;2023-01-29T12:56:02;0.25;80.36
67942;SHT31;54731;42.600;23.476;2023-01-29T12:58:37;0.35;80.28
67942;SHT31;54731;42.600;23.476;2023-01-29T13:01:12;0.47;79.50
67942;SHT31;54731;42.600;23.476;2023-01-29T13:06:10;0.45;79.32
67942;SHT31;54731;42.600;23.476;2023-01-29T13:08:47;0.41;79.64
67942;SHT31;54731;42.600;23.476;2023-01-29T13:11:27;0.41;79.61
67942;SHT31;54731;42.600;23.476;2023-01-29T13:14:00;0.44;79.40
67942;SHT31;54731;42.600;23.476;2023-01-29T13:16:32;0.38;79.50
67942;SHT31;54731;42.600;23.476;2023-01-29T13:19:06;0.31;79.72
67942;SHT31;54731;42.600;23.476;2023-01-29T13:21:36;0.31;79.82
67942;SHT31;54731;42.600;23.476;2023-01-29T13:24:15;0.34;79.92
67942;SHT31;54731;42.600;23.476;2023-01-29T13:26:44;0.41;79.57
67942;SHT31;54731;42.600;23.476;2023-01-29T13:31:46;0.42;79.54
67942;SHT31;54731;42.600;23.476;2023-01-29T13:36:52;0.28;80.07
67942;SHT31;54731;42.600;23.476;2023-01-29T13:39:39;0.32;79.74
67942;SHT31;54731;42.600;23.476;2023-01-29T13:42:25;0.27;79.74
67942;SHT31;54731;42.600;23.476;2023-01-29T13:45:00;0.24;79.73
67942;SHT31;54731;42.600;23.476;2023-01-29T13:47:31;0.25;79.91
67942;SHT31;54731;42.600;23.476;2023-01-29T13:52:35;0.11;80.48
67942;SHT31;54731;42.600;23.476;2023-01-29T14:10:26;-0.09;81.06
67942;SHT31;54731;42.600;23.476;2023-01-29T14:15:39;-0.16;81.07
67942;SHT31;54731;42.600;23.476;2023-01-29T14:20:37;-0.27;81.33
67942;SHT31;54731;42.600;23.476;2023-01-29T14:23:03;-0.21;81.41
67942;SHT31;54731;42.600;23.476;2023-01-29T14:25:32;-0.20;80.91
67942;SHT31;54731;42.600;23.476;2023-01-29T14:28:00;-0.23;81.08
67942;SHT31;54731;42.600;23.476;2023-01-29T14:30:29;-0.21;80.71
67942;SHT31;54731;42.600;23.476;2023-01-29T14:32:55;-0.17;80.69
67942;SHT31;54731;42.600;23.476;2023-01-29T14:35:26;-0.40;81.28
67942;SHT31;54731;42.600;23.476;2023-01-29T14:38:04;-0.42;81.58
67942;SHT31;54731;42.600;23.476;2023-01-29T14:40:31;-0.37;81.53
67942;SHT31;54731;42.600;23.476;2023-01-29T14:43:07;-0.34;81.15
67942;SHT31;54731;42.600;23.476;2023-01-29T14:45:37;-0.26;80.81
67942;SHT31;54731;42.600;23.476;2023-01-29T14:56:00;-0.17;79.80
67942;SHT31;54731;42.600;23.476;2023-01-29T14:58:43;-0.20;79.95
67942;SHT31;54731;42.600;23.476;2023-01-29T15:01:27;-0.31;80.56
67942;SHT31;54731;42.600;23.476;2023-01-29T15:04:02;-0.24;80.62
67942;SHT31;54731;42.600;23.476;2023-01-29T15:06:44;-0.21;80.68
67942;SHT31;54731;42.600;23.476;2023-01-29T15:14:40;-0.34;81.34
67942;SHT31;54731;42.600;23.476;2023-01-29T15:19:40;-0.30;81.61
67942;SHT31;54731;42.600;23.476;2023-01-29T15:22:17;-0.34;81.87
67942;SHT31;54731;42.600;23.476;2023-01-29T15:24:45;-0.34;81.99
67942;SHT31;54731;42.600;23.476;2023-01-29T15:27:13;-0.33;82.15
67942;SHT31;54731;42.600;23.476;2023-01-29T15:29:40;-0.33;82.21
67942;SHT31;54731;42.600;23.476;2023-01-29T15:32:06;-0.33;82.21
67942;SHT31;54731;42.600;23.476;2023-01-29T15:34:32;-0.38;82.24
67942;SHT31;54731;42.600;23.476;2023-01-29T15:36:58;-0.41;82.23
67942;SHT31;54731;42.600;23.476;2023-01-29T15:39:24;-0.37;82.29
67942;SHT31;54731;42.600;23.476;2023-01-29T15:41:53;-0.41;82.49
67942;SHT31;54731;42.600;23.476;2023-01-29T15:44:28;-0.37;82.38
67942;SHT31;54731;42.600;23.476;2023-01-29T15:46:56;-0.41;82.51
67942;SHT31;54731;42.600;23.476;2023-01-29T15:49:33;-0.31;82.46
67942;SHT31;54731;42.600;23.476;2023-01-29T15:52:03;-0.36;82.35
67942;SHT31;54731;42.600;23.476;2023-01-29T15:54:30;-0.34;82.33
67942;SHT31;54731;42.600;23.476;2023-01-29T15:56:57;-0.30;81.93
67942;SHT31;54731;42.600;23.476;2023-01-29T15:59:31;-0.34;81.96
67942;SHT31;54731;42.600;23.476;2023-01-29T16:01:58;-0.45;82.02
67942;SHT31;54731;42.600;23.476;2023-01-29T16:04:26;-0.42;82.38
67942;SHT31;54731;42.600;23.476;2023-01-29T16:06:53;-0.45;82.53
67942;SHT31;54731;42.600;23.476;2023-01-29T16:09:21;-0.47;82.47
67942;SHT31;54731;42.600;23.476;2023-01-29T16:11:47;-0.45;82.37
67942;SHT31;54731;42.600;23.476;2023-01-29T16:14:13;-0.45;82.35
67942;SHT31;54731;42.600;23.476;2023-01-29T16:16:40;-0.40;81.97
67942;SHT31;54731;42.600;23.476;2023-01-29T16:19:24;-0.47;82.13
67942;SHT31;54731;42.600;23.476;2023-01-29T16:22:01;-0.41;82.26
67942;SHT31;54731;42.600;23.476;2023-01-29T16:24:28;-0.38;82.17
67942;SHT31;54731;42.600;23.476;2023-01-29T16:27:09;-0.38;81.99
67942;SHT31;54731;42.600;23.476;2023-01-29T16:29:36;-0.50;81.79
67942;SHT31;54731;42.600;23.476;2023-01-29T16:32:02;-0.48;81.80
67942;SHT31;54731;42.600;23.476;2023-01-29T16:34:36;-0.45;81.82
67942;SHT31;54731;42.600;23.476;2023-01-29T16:37:04;-0.50;82.15
67942;SHT31;54731;42.600;23.476;2023-01-29T16:39:38;-0.54;82.44
67942;SHT31;54731;42.600;23.476;2023-01-29T16:44:37;-0.47;82.14
67942;SHT31;54731;42.600;23.476;2023-01-29T16:47:15;-0.57;82.38
67942;SHT31;54731;42.600;23.476;2023-01-29T16:49:48;-0.51;82.50
67942;SHT31;54731;42.600;23.476;2023-01-29T16:52:28;-0.56;82.41
67942;SHT31;54731;42.600;23.476;2023-01-29T16:54:59;-0.54;82.43
67942;SHT31;54731;42.600;23.476;2023-01-29T16:57:29;-0.48;82.20
67942;SHT31;54731;42.600;23.476;2023-01-29T16:59:57;-0.50;82.41
67942;SHT31;54731;42.600;23.476;2023-01-29T17:02:29;-0.51;82.53
67942;SHT31;54731;42.600;23.476;2023-01-29T17:05:14;-0.50;82.65
67942;SHT31;54731;42.600;23.476;2023-01-29T17:07:43;-0.53;82.42
67942;SHT31;54731;42.600;23.476;2023-01-29T17:10:16;-0.54;82.59
67942;SHT31;54731;42.600;23.476;2023-01-29T17:17:53;-0.48;82.15
67942;SHT31;54731;42.600;23.476;2023-01-29T17:20:18;-0.48;82.23
67942;SHT31;54731;42.600;23.476;2023-01-29T17:22:43;-0.53;82.15
67942;SHT31;54731;42.600;23.476;2023-01-29T17:25:12;-0.56;82.05
67942;SHT31;54731;42.600;23.476;2023-01-29T17:27:40;-0.53;82.07
67942;SHT31;54731;42.600;23.476;2023-01-29T17:30:11;-0.48;81.94
67942;SHT31;54731;42.600;23.476;2023-01-29T17:32:37;-0.45;81.77
67942;SHT31;54731;42.600;23.476;2023-01-29T17:35:03;-0.42;81.63
67942;SHT31;54731;42.600;23.476;2023-01-29T17:37:28;-0.44;81.35
67942;SHT31;54731;42.600;23.476;2023-01-29T17:39:54;-0.45;81.36
67942;SHT31;54731;42.600;23.476;2023-01-29T17:42:19;-0.48;81.22
67942;SHT31;54731;42.600;23.476;2023-01-29T17:44:44;-0.54;81.27
67942;SHT31;54731;42.600;23.476;2023-01-29T17:47:13;-0.54;81.44
67942;SHT31;54731;42.600;23.476;2023-01-29T17:49:39;-0.53;81.61
67942;SHT31;54731;42.600;23.476;2023-01-29T17:52:04;-0.54;81.55
67942;SHT31;54731;42.600;23.476;2023-01-29T17:54:30;-0.51;81.55
67942;SHT31;54731;42.600;23.476;2023-01-29T17:56:55;-0.48;81.61
67942;SHT31;54731;42.600;23.476;2023-01-29T17:59:23;-0.53;81.61